Lowest pressure

Not for real navigation. The accuracy of this data is not assured See disclaimer for more information



ICAO NAME COUNTRY WIND Kt GUST Kt VIS m TEMP/DEW C BARO METAR
NZSP Amundsen-Scott South Pole Stat Antarctica 10 0 9999 -59/0 28.02 NZSP 160550Z 09010KT 9999 IC CAVOK M59/ A2802 RMK CLN AIR 09010KT ALL WNDS GRID SDG/HDG
UHMA Anadyr Russia 17 25 9999 2/1 28.76 UHMA 160600Z 08017G25KT 9999 -SHRA FEW009 SCT026CB 02/01 Q0974 R01/CLRD60 NOSIG RMK TDZ R01/08017G25
NZCM Williams Field Antarctica 0 0 9999 -19/-24 28.88 NZCM 160555Z 00000KT 9999 -SN BKN025 BKN160 M19/M24 A2888 RMK AO2A SLP787 T11871242
PASN ST PAUL ISLAND AIRPORT AK United States 22 30 8000 0/0 28.98 PASN 160553Z AUTO 17022G30KT 5SM -SN SCT013 BKN019 OVC028 A2898 RMK PK WND 18030/0546 RAB03E04SNE03B
PAPB ST. GEORGE AIRPORT AK United States 22 32 11200 6/5 29.02 PAPB 160553Z AUTO 18022G32KT 7SM -RA FEW015 BKN026 OVC032 06/05 A2902 RMK AO2 PK WND 20039/0537 SLP8

Show more